createdAt,value
2022-12-08T00:01:10.925Z,3.20
2022-12-08T00:03:42.465Z,3.20
2022-12-08T00:06:36.358Z,3.20
2022-12-08T00:09:25.989Z,3.20
2022-12-08T00:11:59.251Z,3.10
2022-12-08T00:14:32.842Z,3.10
2022-12-08T00:17:04.177Z,3.10
2022-12-08T00:19:35.363Z,3.10
2022-12-08T00:22:06.631Z,3.10
2022-12-08T00:24:39.822Z,3.10
2022-12-08T00:27:11.795Z,3.10
2022-12-08T00:29:45.821Z,3.00
2022-12-08T00:32:16.500Z,3.00
2022-12-08T00:34:47.202Z,3.00
2022-12-08T00:37:17.842Z,2.90
2022-12-08T00:39:48.411Z,2.90
2022-12-08T00:42:19.042Z,2.90
2022-12-08T00:44:49.761Z,2.90
2022-12-08T00:47:24.687Z,2.90
2022-12-08T00:49:52.662Z,2.90
2022-12-08T00:52:23.643Z,2.90
2022-12-08T00:54:54.298Z,2.90
2022-12-08T00:57:25.063Z,2.90
2022-12-08T00:59:55.638Z,2.80
2022-12-08T01:02:26.366Z,2.80
2022-12-08T01:04:57.116Z,2.90
2022-12-08T01:07:27.729Z,2.90
2022-12-08T01:09:58.794Z,2.90
2022-12-08T01:12:31.217Z,2.90
2022-12-08T01:15:02.676Z,2.80
2022-12-08T01:17:33.769Z,2.90
2022-12-08T01:20:04.792Z,2.90
2022-12-08T01:22:37.195Z,2.90
2022-12-08T01:25:09.196Z,2.80
2022-12-08T01:27:39.892Z,2.80
2022-12-08T01:30:13.438Z,2.70
2022-12-08T01:32:44.183Z,2.70
2022-12-08T01:35:15.072Z,2.60
2022-12-08T01:37:45.703Z,2.60
2022-12-08T01:40:16.565Z,2.60
2022-12-08T01:42:47.153Z,2.50
2022-12-08T01:45:21.614Z,2.60
2022-12-08T01:47:55.054Z,2.60
2022-12-08T01:50:26.971Z,2.50
2022-12-08T01:52:59.779Z,2.50
2022-12-08T01:55:33.370Z,2.50
2022-12-08T01:58:07.082Z,2.40
2022-12-08T02:00:37.710Z,2.40
2022-12-08T02:03:11.619Z,2.30
2022-12-08T02:05:43.341Z,2.30
2022-12-08T02:08:14.873Z,2.30
2022-12-08T02:10:47.099Z,2.20
2022-12-08T02:13:20.306Z,2.30
2022-12-08T02:15:56.382Z,2.30
2022-12-08T02:18:38.711Z,2.30
2022-12-08T02:21:12.839Z,2.30
2022-12-08T02:23:50.670Z,2.30
2022-12-08T02:27:06.753Z,2.20
2022-12-08T02:29:52.807Z,2.20
2022-12-08T02:32:34.747Z,2.20
2022-12-08T02:35:08.831Z,2.20
2022-12-08T02:37:42.430Z,2.20
2022-12-08T02:40:16.394Z,2.20
2022-12-08T02:42:50.529Z,2.30
2022-12-08T02:48:02.548Z,2.20
2022-12-08T02:50:33.252Z,2.20
2022-12-08T02:55:37.880Z,2.20
2022-12-08T02:58:29.522Z,2.10
2022-12-08T03:01:14.120Z,2.00
2022-12-08T03:03:49.039Z,2.00
2022-12-08T03:06:40.657Z,1.90
2022-12-08T03:09:14.436Z,1.80
2022-12-08T03:11:48.851Z,1.70
2022-12-08T03:14:21.531Z,1.70
2022-12-08T03:16:55.317Z,1.60
2022-12-08T03:19:28.639Z,1.50
2022-12-08T03:22:03.021Z,1.40
2022-12-08T03:24:35.904Z,1.30
2022-12-08T03:27:09.342Z,1.20
2022-12-08T03:29:39.971Z,1.10
2022-12-08T03:32:14.623Z,1.00
2022-12-08T03:34:48.559Z,0.90
2022-12-08T03:37:19.902Z,0.80
2022-12-08T03:39:51.140Z,0.70
2022-12-08T03:42:21.869Z,0.60
2022-12-08T03:44:58.396Z,0.60
2022-12-08T03:47:29.022Z,0.70
2022-12-08T03:49:59.677Z,0.80
2022-12-08T03:52:30.537Z,0.90
2022-12-08T03:55:01.232Z,1.00
2022-12-08T03:57:31.945Z,1.00
2022-12-08T04:00:03.021Z,0.90
2022-12-08T04:02:34.002Z,0.70
2022-12-08T04:05:04.914Z,0.60
2022-12-08T04:07:48.813Z,0.50
2022-12-08T04:10:19.758Z,0.50
2022-12-08T04:12:50.390Z,0.40
2022-12-08T04:15:21.163Z,0.40
2022-12-08T04:17:51.961Z,0.40
2022-12-08T04:20:22.811Z,0.40
2022-12-08T04:22:53.378Z,0.30
2022-12-08T04:25:24.876Z,0.40
2022-12-08T04:27:56.537Z,0.30
2022-12-08T04:30:27.122Z,0.30
2022-12-08T04:32:57.909Z,0.30
2022-12-08T04:35:29.864Z,0.30
2022-12-08T04:38:00.554Z,0.20
2022-12-08T04:40:31.147Z,0.20
2022-12-08T04:43:01.828Z,0.10
2022-12-08T04:45:32.544Z,0.10
2022-12-08T04:48:03.792Z,0.10
2022-12-08T04:50:34.599Z,0.00
2022-12-08T04:53:05.279Z,0.00
2022-12-08T04:55:36.454Z,0.00
2022-12-08T04:58:07.133Z,0.00
2022-12-08T05:00:37.774Z,0.00
2022-12-08T05:03:08.501Z,-0.10
2022-12-08T05:05:39.221Z,-0.10
2022-12-08T05:08:10.485Z,-0.20
2022-12-08T05:10:41.535Z,-0.20
2022-12-08T05:13:12.727Z,-0.20
2022-12-08T05:15:43.449Z,-0.30
2022-12-08T05:18:14.209Z,-0.30
2022-12-08T05:20:44.803Z,-0.40
2022-12-08T05:23:15.404Z,-0.30
2022-12-08T05:25:46.074Z,-0.30
2022-12-08T05:28:40.768Z,-0.40
2022-12-08T05:30:49.283Z,-0.40
2022-12-08T05:33:20.447Z,-0.40
2022-12-08T05:35:51.141Z,-0.40
2022-12-08T05:38:24.978Z,-0.40
2022-12-08T05:40:55.555Z,-0.40
2022-12-08T05:43:26.211Z,-0.40
2022-12-08T05:45:57.029Z,-0.30
2022-12-08T05:48:28.249Z,-0.20
2022-12-08T05:50:58.877Z,-0.20
2022-12-08T05:53:29.789Z,-0.20
2022-12-08T05:56:00.489Z,-0.10
2022-12-08T06:01:09.120Z,-0.30
2022-12-08T06:03:39.863Z,-0.40
2022-12-08T06:06:10.661Z,-0.40
2022-12-08T06:08:41.498Z,-0.40
2022-12-08T06:11:13.778Z,-0.50
2022-12-08T06:13:44.407Z,-0.60
2022-12-08T06:18:55.612Z,-0.80
2022-12-08T06:21:26.532Z,-0.70
2022-12-08T06:26:37.350Z,-0.80
2022-12-08T06:29:07.909Z,-0.80
2022-12-08T06:31:38.648Z,-0.70
2022-12-08T06:34:09.462Z,-0.90
2022-12-08T06:36:40.175Z,-0.80
2022-12-08T06:39:12.402Z,-0.70
2022-12-08T06:42:01.898Z,-0.60
2022-12-08T06:44:32.532Z,-0.60
2022-12-08T06:47:03.215Z,-0.60
2022-12-08T06:49:33.826Z,-0.60
2022-12-08T06:52:04.684Z,-0.60
2022-12-08T06:54:35.391Z,-0.70
2022-12-08T06:57:06.105Z,-0.80
2022-12-08T06:59:36.732Z,-0.70
2022-12-08T07:02:07.373Z,-0.80
2022-12-08T07:04:38.101Z,-0.80
2022-12-08T07:07:08.904Z,-0.80
2022-12-08T07:09:39.571Z,-0.80
2022-12-08T07:12:10.499Z,-0.90
2022-12-08T07:14:41.204Z,-0.90
2022-12-08T07:17:11.885Z,-0.90
2022-12-08T07:19:42.528Z,-0.90
2022-12-08T07:22:13.182Z,-0.80
2022-12-08T07:24:44.078Z,-0.70
2022-12-08T07:27:14.655Z,-0.60
2022-12-08T07:29:45.295Z,-0.50
2022-12-08T07:32:15.939Z,-0.30
2022-12-08T07:34:47.343Z,-0.40
2022-12-08T07:37:18.147Z,-0.50
2022-12-08T07:39:49.327Z,-0.60
2022-12-08T07:42:19.900Z,-0.60
2022-12-08T07:44:50.554Z,-0.50
2022-12-08T07:47:21.193Z,-0.60
2022-12-08T07:49:51.783Z,-0.70
2022-12-08T07:52:22.502Z,-0.50
2022-12-08T07:54:53.178Z,-0.50
2022-12-08T07:57:23.821Z,-0.50
2022-12-08T07:59:54.498Z,-0.40
2022-12-08T08:02:26.194Z,-0.50
2022-12-08T08:04:57.402Z,-0.40
2022-12-08T08:07:28.198Z,-0.40
2022-12-08T08:09:58.891Z,-0.30
2022-12-08T08:12:31.996Z,-0.20
2022-12-08T08:15:02.323Z,-0.20
2022-12-08T08:17:33.680Z,-0.40
2022-12-08T08:20:07.125Z,-0.50
2022-12-08T08:22:38.374Z,-0.50
2022-12-08T08:25:10.876Z,-0.50
2022-12-08T08:27:42.057Z,-0.30
2022-12-08T08:30:20.429Z,-0.20
2022-12-08T08:32:48.542Z,0.00
2022-12-08T08:35:19.769Z,0.10
2022-12-08T08:37:50.416Z,0.20
2022-12-08T08:40:21.258Z,0.40
2022-12-08T08:42:51.852Z,0.50
2022-12-08T08:45:22.611Z,0.60
2022-12-08T08:47:53.399Z,0.70
2022-12-08T08:50:24.183Z,0.90
2022-12-08T08:52:54.983Z,1.00
2022-12-08T08:55:25.894Z,1.10
2022-12-08T08:57:56.477Z,1.20
2022-12-08T09:00:27.462Z,1.40
2022-12-08T09:02:58.047Z,1.50
2022-12-08T09:05:28.720Z,1.70
2022-12-08T09:07:59.452Z,1.70
2022-12-08T09:10:30.802Z,1.80
2022-12-08T09:13:01.428Z,1.70
2022-12-08T09:15:32.238Z,1.70
2022-12-08T09:18:02.841Z,1.70
2022-12-08T09:20:33.478Z,1.70
2022-12-08T09:23:04.173Z,1.80
2022-12-08T09:25:34.891Z,1.90
2022-12-08T09:28:06.065Z,1.90
2022-12-08T09:30:36.852Z,1.90
2022-12-08T09:33:07.876Z,1.80
2022-12-08T09:35:38.766Z,1.80
2022-12-08T09:38:09.344Z,1.90
2022-12-08T09:40:43.517Z,2.00
2022-12-08T09:43:19.310Z,2.10
2022-12-08T09:45:52.640Z,2.10
2022-12-08T09:48:26.461Z,2.10
2022-12-08T09:50:59.169Z,2.10
2022-12-08T09:53:35.649Z,2.30
2022-12-08T09:56:07.977Z,2.40
2022-12-08T09:58:42.849Z,2.50
2022-12-08T10:01:14.007Z,2.40
2022-12-08T10:03:45.727Z,2.60
2022-12-08T10:06:20.571Z,2.60
2022-12-08T10:08:55.370Z,2.60
2022-12-08T10:11:30.496Z,2.60
2022-12-08T10:14:05.730Z,2.70
2022-12-08T10:16:40.167Z,2.70
2022-12-08T10:19:16.852Z,2.60
2022-12-08T10:21:48.255Z,2.50
2022-12-08T10:24:23.186Z,2.50
2022-12-08T10:26:55.043Z,2.50
2022-12-08T10:29:25.694Z,2.50
2022-12-08T10:31:57.485Z,2.60
2022-12-08T10:35:03.395Z,2.70
2022-12-08T10:37:34.076Z,2.80
2022-12-08T10:40:08.416Z,2.90
2022-12-08T10:42:41.975Z,2.90
2022-12-08T10:45:27.131Z,2.90
2022-12-08T10:48:04.315Z,3.10
2022-12-08T10:50:37.571Z,3.20
2022-12-08T10:53:16.428Z,3.20
2022-12-08T10:55:48.841Z,3.30
2022-12-08T10:58:31.753Z,3.50
2022-12-08T11:01:05.663Z,3.40
2022-12-08T11:03:39.968Z,3.30
2022-12-08T11:06:18.783Z,3.50
2022-12-08T11:08:55.953Z,3.40
2022-12-08T11:11:40.466Z,3.60
2022-12-08T11:14:12.877Z,3.50
2022-12-08T11:16:45.335Z,3.70
2022-12-08T11:19:19.918Z,3.80
2022-12-08T11:21:50.777Z,3.80
2022-12-08T11:24:29.273Z,3.50
2022-12-08T11:27:03.298Z,3.60
2022-12-08T11:29:36.784Z,3.80
2022-12-08T11:32:10.511Z,3.90
2022-12-08T11:34:44.456Z,4.10
2022-12-08T11:37:18.976Z,4.00
2022-12-08T11:39:52.936Z,4.10
2022-12-08T11:42:26.674Z,3.90
2022-12-08T11:44:59.781Z,3.90
2022-12-08T11:47:32.966Z,4.20
2022-12-08T11:50:07.358Z,4.30
2022-12-08T11:52:43.729Z,4.70
2022-12-08T11:55:25.377Z,4.70
2022-12-08T11:57:58.553Z,4.80
2022-12-08T12:00:29.645Z,4.70
2022-12-08T12:03:03.220Z,5.00
2022-12-08T12:06:05.833Z,4.80
2022-12-08T12:08:31.673Z,4.70
2022-12-08T12:11:09.711Z,4.90
2022-12-08T12:13:49.604Z,5.00
2022-12-08T12:16:35.288Z,4.90
2022-12-08T12:19:08.944Z,4.80
2022-12-08T12:21:42.591Z,4.70
2022-12-08T12:24:23.777Z,5.00
2022-12-08T12:26:58.107Z,5.40
2022-12-08T12:29:31.420Z,5.40
2022-12-08T12:32:04.882Z,5.40
2022-12-08T12:34:39.020Z,5.10
2022-12-08T12:37:12.672Z,5.00
2022-12-08T12:39:52.705Z,5.00
2022-12-08T12:42:44.278Z,4.70
2022-12-08T12:45:30.342Z,4.70
2022-12-08T12:51:04.299Z,4.80
2022-12-08T12:56:59.887Z,4.50
2022-12-08T13:00:09.487Z,4.60
2022-12-08T13:02:43.763Z,4.50
2022-12-08T13:05:19.259Z,4.60
2022-12-08T13:07:53.537Z,4.70
2022-12-08T13:10:26.976Z,4.80
2022-12-08T13:13:18.985Z,4.70
2022-12-08T13:15:54.983Z,4.60
2022-12-08T13:18:28.001Z,4.80
2022-12-08T13:21:02.144Z,4.70
2022-12-08T13:23:45.309Z,4.90
2022-12-08T13:26:19.648Z,4.80
2022-12-08T13:29:27.409Z,4.80
2022-12-08T13:31:58.192Z,4.60
2022-12-08T13:34:36.195Z,4.60
2022-12-08T13:37:13.672Z,4.60
2022-12-08T13:39:48.241Z,4.70
2022-12-08T13:42:25.099Z,4.80
2022-12-08T13:47:35.255Z,4.80
2022-12-08T13:57:56.774Z,4.80
2022-12-08T14:00:28.527Z,4.80
2022-12-08T14:03:01.298Z,4.90
2022-12-08T14:06:11.179Z,4.80
2022-12-08T14:08:57.122Z,4.80
2022-12-08T14:10:57.394Z,4.70
2022-12-08T14:13:28.425Z,4.70
2022-12-08T14:15:59.513Z,4.70
2022-12-08T14:18:32.432Z,4.70
2022-12-08T14:21:22.107Z,4.70
2022-12-08T14:23:39.081Z,4.60
2022-12-08T14:26:12.332Z,4.60
2022-12-08T14:28:45.238Z,4.50
2022-12-08T14:31:16.259Z,4.50
2022-12-08T14:33:51.873Z,4.50
2022-12-08T14:36:21.974Z,4.50
2022-12-08T14:38:55.991Z,4.50
2022-12-08T14:41:31.186Z,4.40
2022-12-08T14:44:03.359Z,4.40
2022-12-08T14:46:34.308Z,4.40
2022-12-08T14:49:04.980Z,4.40
2022-12-08T14:51:37.103Z,4.40
2022-12-08T14:54:11.590Z,4.40
2022-12-08T14:56:44.739Z,4.40
2022-12-08T14:59:18.115Z,4.40
2022-12-08T15:01:50.051Z,4.40
2022-12-08T15:04:24.034Z,4.20
2022-12-08T15:06:57.115Z,4.20
2022-12-08T15:09:38.552Z,4.10
2022-12-08T15:12:29.855Z,4.10
2022-12-08T15:15:02.752Z,4.00
2022-12-08T15:17:36.182Z,4.00
2022-12-08T15:20:10.323Z,3.90
2022-12-08T15:22:41.605Z,3.80
2022-12-08T15:25:15.215Z,3.90
2022-12-08T15:27:50.430Z,3.90
2022-12-08T15:30:20.423Z,3.80
2022-12-08T15:32:52.527Z,3.80
2022-12-08T15:35:23.589Z,3.80
2022-12-08T15:37:54.233Z,3.80
2022-12-08T15:40:26.824Z,3.70
2022-12-08T15:42:57.397Z,3.70
2022-12-08T15:45:31.731Z,3.70
2022-12-08T15:48:02.359Z,3.60
2022-12-08T15:50:33.064Z,3.60
2022-12-08T15:53:03.833Z,3.60
2022-12-08T15:55:38.733Z,3.60
2022-12-08T16:00:56.237Z,3.50
2022-12-08T16:03:49.460Z,3.50
2022-12-08T16:06:20.509Z,3.50
2022-12-08T16:11:34.474Z,3.40
2022-12-08T16:13:57.612Z,3.40
2022-12-08T16:16:26.192Z,3.40
2022-12-08T16:19:15.923Z,3.40
2022-12-08T16:24:18.936Z,3.40
2022-12-08T16:29:23.137Z,3.20
2022-12-08T16:31:53.874Z,3.10
2022-12-08T16:34:24.619Z,3.10
2022-12-08T16:36:55.711Z,3.10
2022-12-08T16:39:26.456Z,3.00
2022-12-08T16:42:14.758Z,3.00
2022-12-08T16:44:45.478Z,3.00
2022-12-08T16:47:16.134Z,3.10
2022-12-08T16:49:46.827Z,3.10
2022-12-08T16:52:18.133Z,3.20
2022-12-08T16:54:49.032Z,3.30
2022-12-08T16:57:19.682Z,3.30
2022-12-08T16:59:50.471Z,3.30
2022-12-08T17:02:21.503Z,3.30
2022-12-08T17:04:52.327Z,3.30
2022-12-08T17:07:23.059Z,3.30
2022-12-08T17:09:53.765Z,3.30
2022-12-08T17:12:24.723Z,3.30
2022-12-08T17:14:55.410Z,3.30
2022-12-08T17:17:26.256Z,3.40
2022-12-08T17:19:56.954Z,3.40
2022-12-08T17:22:27.870Z,3.40
2022-12-08T17:24:58.663Z,3.40
2022-12-08T17:27:30.166Z,3.40
2022-12-08T17:30:00.971Z,3.40
2022-12-08T17:32:31.635Z,3.40
2022-12-08T17:35:02.628Z,3.40
2022-12-08T17:37:33.939Z,3.30
2022-12-08T17:40:05.408Z,3.30
2022-12-08T17:42:36.341Z,3.30
2022-12-08T17:45:10.458Z,3.30
2022-12-08T17:47:41.175Z,3.30
2022-12-08T17:50:12.787Z,3.30
2022-12-08T17:52:43.349Z,3.30
2022-12-08T17:55:14.071Z,3.20
2022-12-08T17:57:44.658Z,3.30
2022-12-08T18:00:16.946Z,3.30
2022-12-08T18:02:47.699Z,3.20
2022-12-08T18:05:18.643Z,3.20
2022-12-08T18:07:49.789Z,3.10
2022-12-08T18:10:21.137Z,3.20
2022-12-08T18:12:51.784Z,3.10
2022-12-08T18:15:23.071Z,3.10
2022-12-08T18:17:53.981Z,3.00
2022-12-08T18:20:25.103Z,3.00
2022-12-08T18:22:55.964Z,3.00
2022-12-08T18:25:26.991Z,3.00
2022-12-08T18:27:57.659Z,3.00
2022-12-08T18:30:28.561Z,3.00
2022-12-08T18:32:59.416Z,2.90
2022-12-08T18:35:30.281Z,2.80
2022-12-08T18:38:01.055Z,2.80
2022-12-08T18:40:32.096Z,3.10
2022-12-08T18:43:02.759Z,3.20
2022-12-08T18:45:34.088Z,3.20
2022-12-08T18:48:05.658Z,3.20
2022-12-08T18:50:36.310Z,3.20
2022-12-08T18:53:06.901Z,3.20
2022-12-08T18:55:39.303Z,3.20
2022-12-08T18:58:11.096Z,3.20
2022-12-08T19:00:41.760Z,3.30
2022-12-08T19:03:12.534Z,3.30
2022-12-08T19:05:43.223Z,3.30
2022-12-08T19:08:13.939Z,3.30
2022-12-08T19:10:45.004Z,3.30
2022-12-08T19:13:17.000Z,3.30
2022-12-08T19:15:47.934Z,3.30
2022-12-08T19:18:18.809Z,3.40
2022-12-08T19:20:49.493Z,3.40
2022-12-08T19:23:20.269Z,3.40
2022-12-08T19:25:51.137Z,3.40
2022-12-08T19:28:21.871Z,3.40
2022-12-08T19:30:53.528Z,3.40
2022-12-08T19:33:24.339Z,3.40
2022-12-08T19:35:55.641Z,3.40
2022-12-08T19:38:26.547Z,3.40
2022-12-08T19:41:14.955Z,3.40
2022-12-08T19:44:03.419Z,3.40
2022-12-08T19:46:40.023Z,3.40
2022-12-08T19:49:06.775Z,3.40
2022-12-08T19:51:37.379Z,3.40
2022-12-08T19:54:08.994Z,3.40
2022-12-08T19:56:39.948Z,3.40
2022-12-08T19:59:10.575Z,3.40
2022-12-08T20:01:41.366Z,3.40
2022-12-08T20:04:14.226Z,3.40
2022-12-08T20:06:45.543Z,3.40
2022-12-08T20:11:55.554Z,3.40
2022-12-08T20:14:26.235Z,3.40
2022-12-08T20:16:56.856Z,3.40
2022-12-08T20:19:27.481Z,3.40
2022-12-08T20:21:58.413Z,3.40
2022-12-08T20:24:29.081Z,3.40
2022-12-08T20:26:59.803Z,3.40
2022-12-08T20:29:30.564Z,3.40
2022-12-08T20:32:01.275Z,3.40
2022-12-08T20:37:11.820Z,3.40
2022-12-08T20:39:42.411Z,3.40
2022-12-08T20:42:15.327Z,3.40
2022-12-08T20:44:46.196Z,3.40
2022-12-08T20:47:17.298Z,3.50
2022-12-08T20:49:49.457Z,3.50
2022-12-08T20:54:59.875Z,3.40
2022-12-08T21:00:12.934Z,3.50
2022-12-08T21:02:48.931Z,3.40
2022-12-08T21:05:16.300Z,3.40
2022-12-08T21:07:47.780Z,3.40
2022-12-08T21:10:18.839Z,3.40
2022-12-08T21:12:49.726Z,3.40
2022-12-08T21:15:21.002Z,3.40
2022-12-08T21:17:51.861Z,3.40
2022-12-08T21:20:23.672Z,3.30
2022-12-08T21:22:54.333Z,3.30
2022-12-08T21:25:25.225Z,3.30
2022-12-08T21:27:56.087Z,3.40
2022-12-08T21:30:26.897Z,3.40
2022-12-08T21:32:57.977Z,3.40
2022-12-08T21:35:29.131Z,3.40
2022-12-08T21:38:00.317Z,3.40
2022-12-08T21:40:31.137Z,3.30
2022-12-08T21:43:03.982Z,3.30
2022-12-08T21:45:36.463Z,3.30
2022-12-08T21:48:11.686Z,3.30
2022-12-08T21:50:41.406Z,3.30
2022-12-08T21:53:12.855Z,3.30
2022-12-08T21:55:43.732Z,3.30
2022-12-08T21:58:14.407Z,3.30
2022-12-08T22:00:45.270Z,3.30
2022-12-08T22:03:17.150Z,3.20
2022-12-08T22:05:48.385Z,3.10
2022-12-08T22:08:19.081Z,3.20
2022-12-08T22:10:50.603Z,3.10
2022-12-08T22:13:21.183Z,3.10
2022-12-08T22:15:59.553Z,3.20
2022-12-08T22:18:31.303Z,3.20
2022-12-08T22:21:02.204Z,3.20
2022-12-08T22:23:33.423Z,3.10
2022-12-08T22:26:06.247Z,3.10
2022-12-08T22:28:39.033Z,3.10
2022-12-08T22:31:14.863Z,3.10
2022-12-08T22:33:45.974Z,3.20
2022-12-08T22:36:19.185Z,3.10
2022-12-08T22:38:50.515Z,3.10
2022-12-08T22:41:21.684Z,3.10
2022-12-08T22:43:52.942Z,3.00
2022-12-08T22:46:27.262Z,3.10
2022-12-08T22:48:58.280Z,3.00
2022-12-08T22:51:29.002Z,3.00
2022-12-08T22:53:59.717Z,3.00
2022-12-08T22:56:30.666Z,2.90
2022-12-08T22:59:01.941Z,3.00
2022-12-08T23:01:37.866Z,2.90
2022-12-08T23:04:12.759Z,2.90
2022-12-08T23:06:41.429Z,2.90
2022-12-08T23:09:12.291Z,2.90
2022-12-08T23:11:43.143Z,2.90
2022-12-08T23:14:13.878Z,2.90
2022-12-08T23:16:44.977Z,3.00
2022-12-08T23:19:15.779Z,3.00
2022-12-08T23:21:46.573Z,3.00
2022-12-08T23:24:17.476Z,3.00
2022-12-08T23:26:48.390Z,3.00
2022-12-08T23:29:19.303Z,3.00
2022-12-08T23:31:50.055Z,3.00
2022-12-08T23:34:20.909Z,3.00
2022-12-08T23:36:51.614Z,3.00
2022-12-08T23:39:24.322Z,3.00
2022-12-08T23:41:55.147Z,3.00
2022-12-08T23:44:26.002Z,3.00
2022-12-08T23:46:56.987Z,3.00
2022-12-08T23:49:28.078Z,3.10
2022-12-08T23:51:58.922Z,3.10
2022-12-08T23:54:30.901Z,3.00
2022-12-08T23:57:01.541Z,3.00
2022-12-08T23:59:33.713Z,3.10
